sensor_id;sensor_type;location;lat;lon;timestamp;P1;durP1;ratioP1;P2;durP2;ratioP2
34064;SDS011;20339;49.754;20.158;2024-02-21T00:00:24;3.90;;;1.50;;
34064;SDS011;20339;49.754;20.158;2024-02-21T00:03:29;3.60;;;1.70;;
34064;SDS011;20339;49.754;20.158;2024-02-21T00:06:00;3.60;;;2.10;;
34064;SDS011;20339;49.754;20.158;2024-02-21T00:08:35;3.00;;;1.90;;
34064;SDS011;20339;49.754;20.158;2024-02-21T00:11:06;3.90;;;1.80;;
34064;SDS011;20339;49.754;20.158;2024-02-21T00:13:45;4.70;;;2.70;;
34064;SDS011;20339;49.754;20.158;2024-02-21T00:16:20;3.20;;;2.30;;
34064;SDS011;20339;49.754;20.158;2024-02-21T00:18:58;6.20;;;3.30;;
34064;SDS011;20339;49.754;20.158;2024-02-21T00:21:29;7.20;;;3.30;;
34064;SDS011;20339;49.754;20.158;2024-02-21T00:24:01;7.10;;;3.00;;
34064;SDS011;20339;49.754;20.158;2024-02-21T00:26:33;6.70;;;2.80;;
34064;SDS011;20339;49.754;20.158;2024-02-21T00:29:06;6.30;;;3.10;;
34064;SDS011;20339;49.754;20.158;2024-02-21T00:31:38;6.80;;;3.00;;
34064;SDS011;20339;49.754;20.158;2024-02-21T00:34:15;5.00;;;2.90;;
34064;SDS011;20339;49.754;20.158;2024-02-21T00:36:46;5.30;;;3.20;;
34064;SDS011;20339;49.754;20.158;2024-02-21T00:39:18;6.70;;;3.50;;
34064;SDS011;20339;49.754;20.158;2024-02-21T00:41:49;8.40;;;3.40;;
34064;SDS011;20339;49.754;20.158;2024-02-21T00:44:26;6.00;;;3.20;;
34064;SDS011;20339;49.754;20.158;2024-02-21T00:46:59;5.70;;;2.70;;
34064;SDS011;20339;49.754;20.158;2024-02-21T00:49:34;8.70;;;3.00;;
34064;SDS011;20339;49.754;20.158;2024-02-21T00:52:05;6.00;;;2.90;;
34064;SDS011;20339;49.754;20.158;2024-02-21T00:54:37;7.70;;;3.40;;
34064;SDS011;20339;49.754;20.158;2024-02-21T00:57:08;6.40;;;2.70;;
34064;SDS011;20339;49.754;20.158;2024-02-21T00:59:43;6.10;;;2.60;;
34064;SDS011;20339;49.754;20.158;2024-02-21T01:02:14;9.70;;;3.10;;
34064;SDS011;20339;49.754;20.158;2024-02-21T01:04:48;7.20;;;2.80;;
34064;SDS011;20339;49.754;20.158;2024-02-21T01:07:20;6.50;;;2.80;;
34064;SDS011;20339;49.754;20.158;2024-02-21T01:09:54;4.70;;;2.50;;
34064;SDS011;20339;49.754;20.158;2024-02-21T01:12:27;4.90;;;2.30;;
34064;SDS011;20339;49.754;20.158;2024-02-21T01:15:03;4.10;;;2.40;;
34064;SDS011;20339;49.754;20.158;2024-02-21T01:17:40;3.60;;;2.10;;
34064;SDS011;20339;49.754;20.158;2024-02-21T01:20:16;5.30;;;2.40;;
34064;SDS011;20339;49.754;20.158;2024-02-21T01:22:50;5.40;;;2.50;;
34064;SDS011;20339;49.754;20.158;2024-02-21T01:25:21;5.10;;;2.70;;
34064;SDS011;20339;49.754;20.158;2024-02-21T01:27:55;8.80;;;3.50;;
34064;SDS011;20339;49.754;20.158;2024-02-21T01:30:26;6.50;;;3.20;;
34064;SDS011;20339;49.754;20.158;2024-02-21T01:33:04;6.20;;;2.70;;
34064;SDS011;20339;49.754;20.158;2024-02-21T01:35:40;5.20;;;2.20;;
34064;SDS011;20339;49.754;20.158;2024-02-21T01:38:12;6.20;;;2.50;;
34064;SDS011;20339;49.754;20.158;2024-02-21T01:40:46;6.20;;;2.90;;
34064;SDS011;20339;49.754;20.158;2024-02-21T01:43:17;3.40;;;1.70;;
34064;SDS011;20339;49.754;20.158;2024-02-21T01:45:50;7.20;;;2.60;;
34064;SDS011;20339;49.754;20.158;2024-02-21T01:48:23;5.50;;;2.10;;
34064;SDS011;20339;49.754;20.158;2024-02-21T01:50:57;3.40;;;1.80;;
34064;SDS011;20339;49.754;20.158;2024-02-21T01:53:32;4.40;;;2.40;;
34064;SDS011;20339;49.754;20.158;2024-02-21T01:56:12;3.80;;;1.90;;
34064;SDS011;20339;49.754;20.158;2024-02-21T01:58:43;4.80;;;2.40;;
34064;SDS011;20339;49.754;20.158;2024-02-21T02:01:29;5.70;;;2.90;;
34064;SDS011;20339;49.754;20.158;2024-02-21T02:04:03;6.00;;;2.80;;
34064;SDS011;20339;49.754;20.158;2024-02-21T02:06:36;5.90;;;2.80;;
34064;SDS011;20339;49.754;20.158;2024-02-21T02:09:16;4.80;;;2.70;;
34064;SDS011;20339;49.754;20.158;2024-02-21T02:11:50;6.30;;;2.50;;
34064;SDS011;20339;49.754;20.158;2024-02-21T02:14:22;5.90;;;2.30;;
34064;SDS011;20339;49.754;20.158;2024-02-21T02:16:54;5.10;;;2.80;;
34064;SDS011;20339;49.754;20.158;2024-02-21T02:19:30;6.00;;;3.20;;
34064;SDS011;20339;49.754;20.158;2024-02-21T02:22:06;8.60;;;3.80;;
34064;SDS011;20339;49.754;20.158;2024-02-21T02:24:46;7.30;;;3.30;;
34064;SDS011;20339;49.754;20.158;2024-02-21T02:27:18;7.80;;;3.70;;
34064;SDS011;20339;49.754;20.158;2024-02-21T02:29:51;7.30;;;3.70;;
34064;SDS011;20339;49.754;20.158;2024-02-21T02:32:28;8.60;;;2.70;;
34064;SDS011;20339;49.754;20.158;2024-02-21T02:35:03;7.20;;;3.10;;
34064;SDS011;20339;49.754;20.158;2024-02-21T02:37:49;6.20;;;2.90;;
34064;SDS011;20339;49.754;20.158;2024-02-21T02:40:25;8.50;;;3.80;;
34064;SDS011;20339;49.754;20.158;2024-02-21T02:42:56;6.80;;;2.50;;
34064;SDS011;20339;49.754;20.158;2024-02-21T02:45:29;4.70;;;2.70;;
34064;SDS011;20339;49.754;20.158;2024-02-21T02:48:06;5.80;;;2.70;;
34064;SDS011;20339;49.754;20.158;2024-02-21T02:50:38;5.00;;;2.90;;
34064;SDS011;20339;49.754;20.158;2024-02-21T02:53:12;6.10;;;3.30;;
34064;SDS011;20339;49.754;20.158;2024-02-21T02:55:43;7.10;;;2.60;;
34064;SDS011;20339;49.754;20.158;2024-02-21T02:58:14;6.70;;;3.50;;
34064;SDS011;20339;49.754;20.158;2024-02-21T03:00:48;7.70;;;2.80;;
34064;SDS011;20339;49.754;20.158;2024-02-21T03:03:19;8.20;;;3.10;;
34064;SDS011;20339;49.754;20.158;2024-02-21T03:05:51;5.80;;;2.70;;
34064;SDS011;20339;49.754;20.158;2024-02-21T03:08:22;6.60;;;3.50;;
34064;SDS011;20339;49.754;20.158;2024-02-21T03:10:54;7.00;;;3.00;;
34064;SDS011;20339;49.754;20.158;2024-02-21T03:13:26;6.50;;;2.60;;
34064;SDS011;20339;49.754;20.158;2024-02-21T03:15:59;5.50;;;2.40;;
34064;SDS011;20339;49.754;20.158;2024-02-21T03:18:33;5.70;;;2.10;;
34064;SDS011;20339;49.754;20.158;2024-02-21T03:21:10;3.70;;;2.20;;
34064;SDS011;20339;49.754;20.158;2024-02-21T03:23:42;8.20;;;3.10;;
34064;SDS011;20339;49.754;20.158;2024-02-21T03:26:15;4.90;;;3.10;;
34064;SDS011;20339;49.754;20.158;2024-02-21T03:28:48;5.00;;;2.60;;
34064;SDS011;20339;49.754;20.158;2024-02-21T03:31:21;4.40;;;2.50;;
34064;SDS011;20339;49.754;20.158;2024-02-21T03:33:52;3.90;;;2.20;;
34064;SDS011;20339;49.754;20.158;2024-02-21T03:36:32;4.50;;;2.80;;
34064;SDS011;20339;49.754;20.158;2024-02-21T03:39:04;3.90;;;2.30;;
34064;SDS011;20339;49.754;20.158;2024-02-21T03:41:43;6.20;;;2.70;;
34064;SDS011;20339;49.754;20.158;2024-02-21T03:44:19;3.80;;;2.30;;
34064;SDS011;20339;49.754;20.158;2024-02-21T03:46:53;7.30;;;2.30;;
34064;SDS011;20339;49.754;20.158;2024-02-21T03:49:28;5.30;;;1.90;;
34064;SDS011;20339;49.754;20.158;2024-02-21T03:52:01;4.60;;;2.30;;
34064;SDS011;20339;49.754;20.158;2024-02-21T03:54:33;4.80;;;2.30;;
34064;SDS011;20339;49.754;20.158;2024-02-21T03:57:07;5.40;;;2.50;;
34064;SDS011;20339;49.754;20.158;2024-02-21T03:59:42;5.70;;;3.10;;
34064;SDS011;20339;49.754;20.158;2024-02-21T04:02:15;6.80;;;3.50;;
34064;SDS011;20339;49.754;20.158;2024-02-21T04:04:48;5.30;;;2.50;;
34064;SDS011;20339;49.754;20.158;2024-02-21T04:07:23;7.70;;;3.20;;
34064;SDS011;20339;49.754;20.158;2024-02-21T04:09:54;8.40;;;2.70;;
34064;SDS011;20339;49.754;20.158;2024-02-21T04:12:30;5.30;;;2.80;;
34064;SDS011;20339;49.754;20.158;2024-02-21T04:15:03;4.00;;;2.50;;
34064;SDS011;20339;49.754;20.158;2024-02-21T04:17:38;4.50;;;2.70;;
34064;SDS011;20339;49.754;20.158;2024-02-21T04:20:15;4.30;;;3.00;;
34064;SDS011;20339;49.754;20.158;2024-02-21T04:22:49;5.30;;;2.60;;
34064;SDS011;20339;49.754;20.158;2024-02-21T04:25:23;7.00;;;3.00;;
34064;SDS011;20339;49.754;20.158;2024-02-21T04:27:59;7.20;;;3.30;;
34064;SDS011;20339;49.754;20.158;2024-02-21T04:30:38;8.90;;;3.60;;
34064;SDS011;20339;49.754;20.158;2024-02-21T04:33:11;5.00;;;2.90;;
34064;SDS011;20339;49.754;20.158;2024-02-21T04:35:49;4.80;;;2.50;;
34064;SDS011;20339;49.754;20.158;2024-02-21T04:38:23;4.30;;;2.70;;
34064;SDS011;20339;49.754;20.158;2024-02-21T04:40:54;3.90;;;2.20;;
34064;SDS011;20339;49.754;20.158;2024-02-21T04:43:31;6.30;;;2.70;;
34064;SDS011;20339;49.754;20.158;2024-02-21T04:46:09;6.30;;;2.50;;
34064;SDS011;20339;49.754;20.158;2024-02-21T04:48:40;5.40;;;2.30;;
34064;SDS011;20339;49.754;20.158;2024-02-21T04:51:16;4.20;;;2.00;;
34064;SDS011;20339;49.754;20.158;2024-02-21T04:53:49;3.70;;;1.90;;
34064;SDS011;20339;49.754;20.158;2024-02-21T04:56:23;7.30;;;2.50;;
34064;SDS011;20339;49.754;20.158;2024-02-21T04:58:55;5.20;;;2.40;;
34064;SDS011;20339;49.754;20.158;2024-02-21T05:01:26;5.60;;;2.80;;
34064;SDS011;20339;49.754;20.158;2024-02-21T05:04:03;4.60;;;2.00;;
34064;SDS011;20339;49.754;20.158;2024-02-21T05:06:38;4.70;;;2.40;;
34064;SDS011;20339;49.754;20.158;2024-02-21T05:09:15;5.20;;;2.20;;
34064;SDS011;20339;49.754;20.158;2024-02-21T05:11:49;4.90;;;2.80;;
34064;SDS011;20339;49.754;20.158;2024-02-21T05:14:21;5.90;;;2.90;;
34064;SDS011;20339;49.754;20.158;2024-02-21T05:16:52;4.80;;;2.40;;
34064;SDS011;20339;49.754;20.158;2024-02-21T05:19:24;6.60;;;2.30;;
34064;SDS011;20339;49.754;20.158;2024-02-21T05:22:00;5.20;;;2.20;;
34064;SDS011;20339;49.754;20.158;2024-02-21T05:24:33;4.50;;;2.00;;
34064;SDS011;20339;49.754;20.158;2024-02-21T05:27:08;3.60;;;2.00;;
34064;SDS011;20339;49.754;20.158;2024-02-21T05:29:41;7.00;;;2.70;;
34064;SDS011;20339;49.754;20.158;2024-02-21T05:32:13;4.80;;;2.20;;
34064;SDS011;20339;49.754;20.158;2024-02-21T05:34:49;5.10;;;2.60;;
34064;SDS011;20339;49.754;20.158;2024-02-21T05:37:20;5.60;;;2.90;;
34064;SDS011;20339;49.754;20.158;2024-02-21T05:39:52;5.70;;;2.50;;
34064;SDS011;20339;49.754;20.158;2024-02-21T05:42:25;5.40;;;2.30;;
34064;SDS011;20339;49.754;20.158;2024-02-21T05:44:57;5.80;;;2.60;;
34064;SDS011;20339;49.754;20.158;2024-02-21T05:47:31;7.40;;;3.30;;
34064;SDS011;20339;49.754;20.158;2024-02-21T05:50:06;5.90;;;2.80;;
34064;SDS011;20339;49.754;20.158;2024-02-21T05:52:38;5.80;;;2.10;;
34064;SDS011;20339;49.754;20.158;2024-02-21T05:55:10;6.40;;;2.90;;
34064;SDS011;20339;49.754;20.158;2024-02-21T05:57:43;5.70;;;2.90;;
34064;SDS011;20339;49.754;20.158;2024-02-21T06:00:15;5.90;;;3.00;;
34064;SDS011;20339;49.754;20.158;2024-02-21T06:02:50;6.40;;;2.40;;
34064;SDS011;20339;49.754;20.158;2024-02-21T06:05:26;5.10;;;2.70;;
34064;SDS011;20339;49.754;20.158;2024-02-21T06:07:59;5.60;;;2.90;;
34064;SDS011;20339;49.754;20.158;2024-02-21T06:10:33;5.40;;;2.20;;
34064;SDS011;20339;49.754;20.158;2024-02-21T06:13:05;4.50;;;2.20;;
34064;SDS011;20339;49.754;20.158;2024-02-21T06:15:39;7.30;;;2.90;;
34064;SDS011;20339;49.754;20.158;2024-02-21T06:18:11;7.30;;;2.30;;
34064;SDS011;20339;49.754;20.158;2024-02-21T06:20:42;5.80;;;2.50;;
34064;SDS011;20339;49.754;20.158;2024-02-21T06:23:15;3.20;;;2.30;;
34064;SDS011;20339;49.754;20.158;2024-02-21T06:25:51;6.80;;;2.50;;
34064;SDS011;20339;49.754;20.158;2024-02-21T06:28:23;5.40;;;2.50;;
34064;SDS011;20339;49.754;20.158;2024-02-21T06:30:57;3.40;;;2.30;;
34064;SDS011;20339;49.754;20.158;2024-02-21T06:33:37;5.40;;;2.50;;
34064;SDS011;20339;49.754;20.158;2024-02-21T06:36:10;5.50;;;2.60;;
34064;SDS011;20339;49.754;20.158;2024-02-21T06:38:46;5.60;;;2.40;;
34064;SDS011;20339;49.754;20.158;2024-02-21T06:41:19;4.90;;;2.30;;
34064;SDS011;20339;49.754;20.158;2024-02-21T06:43:50;5.30;;;2.00;;
34064;SDS011;20339;49.754;20.158;2024-02-21T06:46:24;5.10;;;2.30;;
34064;SDS011;20339;49.754;20.158;2024-02-21T06:49:04;5.90;;;2.20;;
34064;SDS011;20339;49.754;20.158;2024-02-21T06:51:38;3.80;;;1.70;;
34064;SDS011;20339;49.754;20.158;2024-02-21T06:54:10;4.00;;;1.90;;
34064;SDS011;20339;49.754;20.158;2024-02-21T06:56:44;5.50;;;2.40;;
34064;SDS011;20339;49.754;20.158;2024-02-21T06:59:17;4.80;;;2.40;;
34064;SDS011;20339;49.754;20.158;2024-02-21T07:01:54;4.20;;;2.00;;
34064;SDS011;20339;49.754;20.158;2024-02-21T07:04:31;3.80;;;2.10;;
34064;SDS011;20339;49.754;20.158;2024-02-21T07:07:03;4.10;;;2.40;;
34064;SDS011;20339;49.754;20.158;2024-02-21T07:09:40;4.00;;;2.20;;
34064;SDS011;20339;49.754;20.158;2024-02-21T07:12:16;5.90;;;3.00;;
34064;SDS011;20339;49.754;20.158;2024-02-21T07:14:47;4.10;;;2.40;;
34064;SDS011;20339;49.754;20.158;2024-02-21T07:17:22;5.00;;;2.50;;
34064;SDS011;20339;49.754;20.158;2024-02-21T07:19:53;5.80;;;2.70;;
34064;SDS011;20339;49.754;20.158;2024-02-21T07:22:26;11.90;;;3.40;;
34064;SDS011;20339;49.754;20.158;2024-02-21T07:24:58;5.70;;;2.30;;
34064;SDS011;20339;49.754;20.158;2024-02-21T07:27:29;5.40;;;3.00;;
34064;SDS011;20339;49.754;20.158;2024-02-21T07:30:04;4.90;;;3.10;;
34064;SDS011;20339;49.754;20.158;2024-02-21T07:32:40;6.40;;;3.10;;
34064;SDS011;20339;49.754;20.158;2024-02-21T07:35:17;6.00;;;2.70;;
34064;SDS011;20339;49.754;20.158;2024-02-21T07:37:50;6.50;;;3.80;;
34064;SDS011;20339;49.754;20.158;2024-02-21T07:40:22;4.70;;;3.00;;
34064;SDS011;20339;49.754;20.158;2024-02-21T07:42:54;3.90;;;2.80;;
34064;SDS011;20339;49.754;20.158;2024-02-21T07:45:26;6.90;;;3.60;;
34064;SDS011;20339;49.754;20.158;2024-02-21T07:47:59;6.70;;;3.40;;
34064;SDS011;20339;49.754;20.158;2024-02-21T07:50:37;5.90;;;4.00;;
34064;SDS011;20339;49.754;20.158;2024-02-21T07:53:12;6.60;;;3.70;;
34064;SDS011;20339;49.754;20.158;2024-02-21T07:55:44;4.70;;;3.50;;
34064;SDS011;20339;49.754;20.158;2024-02-21T07:58:15;5.90;;;3.90;;
34064;SDS011;20339;49.754;20.158;2024-02-21T08:00:49;5.60;;;3.60;;
34064;SDS011;20339;49.754;20.158;2024-02-21T08:03:23;4.90;;;3.50;;
34064;SDS011;20339;49.754;20.158;2024-02-21T08:05:56;7.00;;;3.40;;
34064;SDS011;20339;49.754;20.158;2024-02-21T08:08:28;7.00;;;4.00;;
34064;SDS011;20339;49.754;20.158;2024-02-21T08:11:01;5.30;;;3.60;;
34064;SDS011;20339;49.754;20.158;2024-02-21T08:13:35;6.70;;;3.20;;
34064;SDS011;20339;49.754;20.158;2024-02-21T08:16:11;7.10;;;3.50;;
34064;SDS011;20339;49.754;20.158;2024-02-21T08:18:43;6.10;;;3.30;;
34064;SDS011;20339;49.754;20.158;2024-02-21T08:21:15;5.80;;;3.00;;
34064;SDS011;20339;49.754;20.158;2024-02-21T08:23:54;5.90;;;3.20;;
34064;SDS011;20339;49.754;20.158;2024-02-21T08:26:28;5.70;;;2.40;;
34064;SDS011;20339;49.754;20.158;2024-02-21T08:29:04;6.90;;;3.00;;
34064;SDS011;20339;49.754;20.158;2024-02-21T08:31:38;5.90;;;2.40;;
34064;SDS011;20339;49.754;20.158;2024-02-21T08:34:15;6.70;;;3.10;;
34064;SDS011;20339;49.754;20.158;2024-02-21T08:36:47;5.80;;;2.50;;
34064;SDS011;20339;49.754;20.158;2024-02-21T08:39:19;4.40;;;2.50;;
34064;SDS011;20339;49.754;20.158;2024-02-21T08:41:50;6.80;;;3.20;;
34064;SDS011;20339;49.754;20.158;2024-02-21T08:44:21;5.20;;;2.30;;
34064;SDS011;20339;49.754;20.158;2024-02-21T08:46:58;5.00;;;2.90;;
34064;SDS011;20339;49.754;20.158;2024-02-21T08:49:33;5.00;;;2.60;;
34064;SDS011;20339;49.754;20.158;2024-02-21T08:52:05;5.30;;;2.30;;
34064;SDS011;20339;49.754;20.158;2024-02-21T08:54:40;5.20;;;2.50;;
34064;SDS011;20339;49.754;20.158;2024-02-21T08:57:12;5.00;;;2.30;;
34064;SDS011;20339;49.754;20.158;2024-02-21T08:59:47;4.80;;;2.30;;
34064;SDS011;20339;49.754;20.158;2024-02-21T09:05:39;4.20;;;2.50;;
34064;SDS011;20339;49.754;20.158;2024-02-21T09:08:10;4.60;;;1.90;;
34064;SDS011;20339;49.754;20.158;2024-02-21T09:10:41;4.20;;;1.80;;
34064;SDS011;20339;49.754;20.158;2024-02-21T09:13:16;4.40;;;1.90;;
34064;SDS011;20339;49.754;20.158;2024-02-21T09:15:52;6.40;;;1.50;;
34064;SDS011;20339;49.754;20.158;2024-02-21T09:18:25;4.60;;;1.50;;
34064;SDS011;20339;49.754;20.158;2024-02-21T09:20:59;4.70;;;1.80;;
34064;SDS011;20339;49.754;20.158;2024-02-21T09:23:38;4.00;;;1.70;;
34064;SDS011;20339;49.754;20.158;2024-02-21T09:26:09;5.20;;;1.80;;
34064;SDS011;20339;49.754;20.158;2024-02-21T09:28:44;5.30;;;1.90;;
34064;SDS011;20339;49.754;20.158;2024-02-21T09:31:16;6.70;;;2.40;;
34064;SDS011;20339;49.754;20.158;2024-02-21T09:33:51;4.50;;;2.20;;
34064;SDS011;20339;49.754;20.158;2024-02-21T09:36:23;5.30;;;2.00;;
34064;SDS011;20339;49.754;20.158;2024-02-21T09:38:56;6.20;;;2.10;;
34064;SDS011;20339;49.754;20.158;2024-02-21T09:41:31;2.80;;;1.70;;
34064;SDS011;20339;49.754;20.158;2024-02-21T09:44:08;5.80;;;2.40;;
34064;SDS011;20339;49.754;20.158;2024-02-21T09:46:49;4.30;;;1.90;;
34064;SDS011;20339;49.754;20.158;2024-02-21T09:49:29;5.10;;;2.40;;
34064;SDS011;20339;49.754;20.158;2024-02-21T09:52:07;4.80;;;2.40;;
34064;SDS011;20339;49.754;20.158;2024-02-21T09:54:41;7.10;;;2.70;;
34064;SDS011;20339;49.754;20.158;2024-02-21T09:57:13;5.40;;;2.20;;
34064;SDS011;20339;49.754;20.158;2024-02-21T09:59:47;4.40;;;1.60;;
34064;SDS011;20339;49.754;20.158;2024-02-21T10:02:21;5.00;;;2.00;;
34064;SDS011;20339;49.754;20.158;2024-02-21T10:04:56;6.50;;;2.70;;
34064;SDS011;20339;49.754;20.158;2024-02-21T10:07:39;5.10;;;1.90;;
34064;SDS011;20339;49.754;20.158;2024-02-21T10:10:10;6.90;;;3.10;;
34064;SDS011;20339;49.754;20.158;2024-02-21T10:12:49;5.80;;;2.20;;
34064;SDS011;20339;49.754;20.158;2024-02-21T10:15:23;4.10;;;1.70;;
34064;SDS011;20339;49.754;20.158;2024-02-21T10:18:00;5.10;;;2.20;;
34064;SDS011;20339;49.754;20.158;2024-02-21T10:20:33;4.30;;;1.90;;
34064;SDS011;20339;49.754;20.158;2024-02-21T10:23:12;2.60;;;1.10;;
34064;SDS011;20339;49.754;20.158;2024-02-21T10:25:44;4.00;;;1.50;;
34064;SDS011;20339;49.754;20.158;2024-02-21T10:28:21;3.60;;;1.90;;
34064;SDS011;20339;49.754;20.158;2024-02-21T10:30:53;5.20;;;2.00;;
34064;SDS011;20339;49.754;20.158;2024-02-21T10:33:26;2.50;;;1.60;;
34064;SDS011;20339;49.754;20.158;2024-02-21T10:36:10;4.60;;;2.00;;
34064;SDS011;20339;49.754;20.158;2024-02-21T10:38:43;3.50;;;1.50;;
34064;SDS011;20339;49.754;20.158;2024-02-21T10:41:14;5.90;;;2.10;;
34064;SDS011;20339;49.754;20.158;2024-02-21T10:43:54;3.90;;;1.50;;
34064;SDS011;20339;49.754;20.158;2024-02-21T10:46:32;2.70;;;1.30;;
34064;SDS011;20339;49.754;20.158;2024-02-21T10:49:07;1.80;;;0.80;;
34064;SDS011;20339;49.754;20.158;2024-02-21T10:51:48;4.30;;;1.70;;
34064;SDS011;20339;49.754;20.158;2024-02-21T10:54:39;5.00;;;2.20;;
34064;SDS011;20339;49.754;20.158;2024-02-21T10:57:15;1.40;;;0.70;;
34064;SDS011;20339;49.754;20.158;2024-02-21T10:59:48;4.90;;;2.10;;
34064;SDS011;20339;49.754;20.158;2024-02-21T11:02:25;4.20;;;2.10;;
34064;SDS011;20339;49.754;20.158;2024-02-21T11:05:04;3.70;;;1.80;;
34064;SDS011;20339;49.754;20.158;2024-02-21T11:07:39;3.20;;;1.80;;
34064;SDS011;20339;49.754;20.158;2024-02-21T11:10:22;4.70;;;1.70;;
34064;SDS011;20339;49.754;20.158;2024-02-21T11:13:06;4.50;;;2.30;;
34064;SDS011;20339;49.754;20.158;2024-02-21T11:15:39;7.00;;;2.30;;
34064;SDS011;20339;49.754;20.158;2024-02-21T11:18:11;3.30;;;1.50;;
34064;SDS011;20339;49.754;20.158;2024-02-21T11:20:52;4.50;;;1.70;;
34064;SDS011;20339;49.754;20.158;2024-02-21T11:23:26;4.40;;;1.70;;
34064;SDS011;20339;49.754;20.158;2024-02-21T11:26:05;4.00;;;1.60;;
34064;SDS011;20339;49.754;20.158;2024-02-21T11:28:39;3.70;;;1.90;;
34064;SDS011;20339;49.754;20.158;2024-02-21T11:31:12;4.10;;;2.10;;
34064;SDS011;20339;49.754;20.158;2024-02-21T11:33:45;6.20;;;2.10;;
34064;SDS011;20339;49.754;20.158;2024-02-21T11:36:26;3.70;;;1.30;;
34064;SDS011;20339;49.754;20.158;2024-02-21T11:39:04;2.50;;;1.50;;
34064;SDS011;20339;49.754;20.158;2024-02-21T11:41:38;5.90;;;2.00;;
34064;SDS011;20339;49.754;20.158;2024-02-21T11:44:12;4.50;;;2.00;;
34064;SDS011;20339;49.754;20.158;2024-02-21T11:46:48;5.10;;;2.00;;
34064;SDS011;20339;49.754;20.158;2024-02-21T11:49:26;3.50;;;1.60;;
34064;SDS011;20339;49.754;20.158;2024-02-21T11:52:01;5.50;;;2.00;;
34064;SDS011;20339;49.754;20.158;2024-02-21T11:54:33;4.50;;;2.40;;
34064;SDS011;20339;49.754;20.158;2024-02-21T11:57:11;7.60;;;1.60;;
34064;SDS011;20339;49.754;20.158;2024-02-21T11:59:45;3.60;;;1.80;;
34064;SDS011;20339;49.754;20.158;2024-02-21T12:02:20;6.30;;;2.40;;
34064;SDS011;20339;49.754;20.158;2024-02-21T12:05:00;3.30;;;1.60;;
34064;SDS011;20339;49.754;20.158;2024-02-21T12:07:37;3.30;;;1.70;;
34064;SDS011;20339;49.754;20.158;2024-02-21T12:10:15;2.90;;;1.80;;
34064;SDS011;20339;49.754;20.158;2024-02-21T12:12:47;2.80;;;2.10;;
34064;SDS011;20339;49.754;20.158;2024-02-21T12:15:25;4.80;;;2.60;;
34064;SDS011;20339;49.754;20.158;2024-02-21T12:17:57;3.30;;;2.20;;
34064;SDS011;20339;49.754;20.158;2024-02-21T12:20:32;3.40;;;2.40;;
34064;SDS011;20339;49.754;20.158;2024-02-21T12:23:12;2.60;;;2.10;;
34064;SDS011;20339;49.754;20.158;2024-02-21T12:25:45;4.00;;;2.60;;
34064;SDS011;20339;49.754;20.158;2024-02-21T12:28:24;6.20;;;2.70;;
34064;SDS011;20339;49.754;20.158;2024-02-21T12:31:01;5.20;;;2.30;;
34064;SDS011;20339;49.754;20.158;2024-02-21T12:33:35;6.20;;;3.20;;
34064;SDS011;20339;49.754;20.158;2024-02-21T12:36:11;5.50;;;2.30;;
34064;SDS011;20339;49.754;20.158;2024-02-21T12:38:48;4.50;;;3.00;;
34064;SDS011;20339;49.754;20.158;2024-02-21T12:41:21;3.40;;;2.00;;
34064;SDS011;20339;49.754;20.158;2024-02-21T12:43:55;6.20;;;3.10;;
34064;SDS011;20339;49.754;20.158;2024-02-21T12:46:27;6.20;;;3.70;;
34064;SDS011;20339;49.754;20.158;2024-02-21T12:49:03;8.50;;;5.10;;
34064;SDS011;20339;49.754;20.158;2024-02-21T12:51:41;5.50;;;3.10;;
34064;SDS011;20339;49.754;20.158;2024-02-21T12:54:15;8.10;;;4.30;;
34064;SDS011;20339;49.754;20.158;2024-02-21T12:56:48;4.50;;;2.30;;
34064;SDS011;20339;49.754;20.158;2024-02-21T12:59:20;7.00;;;3.50;;
34064;SDS011;20339;49.754;20.158;2024-02-21T13:01:52;6.40;;;2.90;;
34064;SDS011;20339;49.754;20.158;2024-02-21T13:04:26;5.30;;;3.00;;
34064;SDS011;20339;49.754;20.158;2024-02-21T13:07:01;6.70;;;3.40;;
34064;SDS011;20339;49.754;20.158;2024-02-21T13:09:34;5.90;;;3.30;;
34064;SDS011;20339;49.754;20.158;2024-02-21T13:12:07;8.10;;;3.80;;
34064;SDS011;20339;49.754;20.158;2024-02-21T13:14:41;7.70;;;3.70;;
34064;SDS011;20339;49.754;20.158;2024-02-21T13:17:12;6.50;;;3.20;;
34064;SDS011;20339;49.754;20.158;2024-02-21T13:19:49;8.40;;;4.40;;
34064;SDS011;20339;49.754;20.158;2024-02-21T13:22:24;8.60;;;4.10;;
34064;SDS011;20339;49.754;20.158;2024-02-21T13:24:59;7.80;;;4.50;;
34064;SDS011;20339;49.754;20.158;2024-02-21T13:27:35;9.60;;;4.80;;
34064;SDS011;20339;49.754;20.158;2024-02-21T13:30:11;9.10;;;4.10;;
34064;SDS011;20339;49.754;20.158;2024-02-21T13:32:47;6.50;;;3.30;;
34064;SDS011;20339;49.754;20.158;2024-02-21T13:35:18;7.80;;;3.80;;
34064;SDS011;20339;49.754;20.158;2024-02-21T13:37:54;7.70;;;4.20;;
34064;SDS011;20339;49.754;20.158;2024-02-21T13:40:26;5.20;;;3.50;;
34064;SDS011;20339;49.754;20.158;2024-02-21T13:42:57;8.00;;;3.60;;
34064;SDS011;20339;49.754;20.158;2024-02-21T13:45:39;7.20;;;3.20;;
34064;SDS011;20339;49.754;20.158;2024-02-21T13:48:27;4.10;;;2.10;;
34064;SDS011;20339;49.754;20.158;2024-02-21T13:51:02;5.80;;;2.60;;
34064;SDS011;20339;49.754;20.158;2024-02-21T13:53:37;6.10;;;3.60;;
34064;SDS011;20339;49.754;20.158;2024-02-21T13:56:11;5.50;;;2.60;;
34064;SDS011;20339;49.754;20.158;2024-02-21T13:58:48;7.00;;;2.50;;
34064;SDS011;20339;49.754;20.158;2024-02-21T14:01:20;8.10;;;3.20;;
34064;SDS011;20339;49.754;20.158;2024-02-21T14:03:54;5.20;;;3.30;;
34064;SDS011;20339;49.754;20.158;2024-02-21T14:06:29;7.10;;;3.20;;
34064;SDS011;20339;49.754;20.158;2024-02-21T14:09:06;7.40;;;3.20;;
34064;SDS011;20339;49.754;20.158;2024-02-21T14:11:37;7.50;;;2.80;;
34064;SDS011;20339;49.754;20.158;2024-02-21T14:14:12;5.40;;;2.90;;
34064;SDS011;20339;49.754;20.158;2024-02-21T14:16:48;5.20;;;2.80;;
34064;SDS011;20339;49.754;20.158;2024-02-21T14:19:20;5.60;;;2.50;;
34064;SDS011;20339;49.754;20.158;2024-02-21T14:21:56;3.80;;;2.20;;
34064;SDS011;20339;49.754;20.158;2024-02-21T14:24:30;7.20;;;2.40;;
34064;SDS011;20339;49.754;20.158;2024-02-21T14:27:06;4.80;;;2.60;;
34064;SDS011;20339;49.754;20.158;2024-02-21T14:29:40;6.60;;;2.90;;
34064;SDS011;20339;49.754;20.158;2024-02-21T14:32:16;5.10;;;2.60;;
34064;SDS011;20339;49.754;20.158;2024-02-21T14:34:52;7.00;;;2.60;;
34064;SDS011;20339;49.754;20.158;2024-02-21T14:37:28;6.80;;;3.40;;
34064;SDS011;20339;49.754;20.158;2024-02-21T14:40:01;5.10;;;2.20;;
34064;SDS011;20339;49.754;20.158;2024-02-21T14:42:34;4.40;;;2.30;;
34064;SDS011;20339;49.754;20.158;2024-02-21T14:45:07;8.40;;;2.70;;
34064;SDS011;20339;49.754;20.158;2024-02-21T14:47:44;4.40;;;1.80;;
34064;SDS011;20339;49.754;20.158;2024-02-21T14:50:15;7.90;;;3.40;;
34064;SDS011;20339;49.754;20.158;2024-02-21T14:52:46;7.30;;;3.50;;
34064;SDS011;20339;49.754;20.158;2024-02-21T14:55:18;8.70;;;3.50;;
34064;SDS011;20339;49.754;20.158;2024-02-21T14:57:51;5.40;;;2.90;;
34064;SDS011;20339;49.754;20.158;2024-02-21T15:00:25;6.50;;;3.30;;
34064;SDS011;20339;49.754;20.158;2024-02-21T15:03:00;4.80;;;3.20;;
34064;SDS011;20339;49.754;20.158;2024-02-21T15:05:34;6.80;;;2.80;;
34064;SDS011;20339;49.754;20.158;2024-02-21T15:08:10;6.30;;;3.00;;
34064;SDS011;20339;49.754;20.158;2024-02-21T15:10:45;5.30;;;2.90;;
34064;SDS011;20339;49.754;20.158;2024-02-21T15:13:18;7.10;;;3.30;;
34064;SDS011;20339;49.754;20.158;2024-02-21T15:15:50;7.50;;;3.60;;
34064;SDS011;20339;49.754;20.158;2024-02-21T15:18:22;9.00;;;3.70;;